Aviation Digital Data Service (ADDS)

Output produced by METARs form (1140 UTC 23 October 2014)
found at http://aviationweather.gov/adds/metars/
 
KDEN 231120Z 2312/2418 22007KT P6SM FEW100 SCT220 
     FM231500 VRB05KT P6SM FEW120 SCT220 
     FM231900 13006KT P6SM FEW120 SCT220 
     FM240200 19008KT P6SM FEW120 SCT220 
     FM240600 21010KT P6SM FEW130 BKN200 
     FM241500 17006KT P6SM FEW200